createdAt,value
2023-05-30T00:00:24.677Z,12.35
2023-05-30T00:02:49.582Z,14.60
2023-05-30T00:05:17.324Z,16.15
2023-05-30T00:07:42.139Z,12.80
2023-05-30T00:10:07.837Z,12.50
2023-05-30T00:12:32.702Z,14.82
2023-05-30T00:15:00.922Z,14.77
2023-05-30T00:17:27.666Z,14.57
2023-05-30T00:19:53.786Z,13.20
2023-05-30T00:22:21.494Z,16.40
2023-05-30T00:24:46.704Z,14.55
2023-05-30T00:27:16.492Z,12.88
2023-05-30T00:29:43.125Z,17.58
2023-05-30T00:32:08.617Z,15.70
2023-05-30T00:34:33.365Z,12.57
2023-05-30T00:36:58.002Z,12.35
2023-05-30T00:39:24.920Z,13.55
2023-05-30T00:41:49.672Z,13.43
2023-05-30T00:44:14.273Z,12.50
2023-05-30T00:46:41.023Z,12.30
2023-05-30T00:49:06.428Z,11.68
2023-05-30T00:51:33.345Z,12.60
2023-05-30T00:53:59.462Z,11.07
2023-05-30T00:56:27.882Z,10.65
2023-05-30T00:58:53.709Z,12.45
2023-05-30T01:01:20.195Z,13.70
2023-05-30T01:03:48.666Z,11.90
2023-05-30T01:06:13.531Z,17.60
2023-05-30T01:08:38.962Z,13.98
2023-05-30T01:11:13.446Z,14.98
2023-05-30T01:13:51.042Z,14.52
2023-05-30T01:16:21.496Z,12.43
2023-05-30T01:18:52.407Z,15.52
2023-05-30T01:21:20.773Z,14.85
2023-05-30T01:24:07.705Z,12.90
2023-05-30T01:26:51.469Z,12.13
2023-05-30T01:29:23.057Z,15.10
2023-05-30T01:31:48.999Z,11.63
2023-05-30T01:34:15.586Z,15.13
2023-05-30T01:36:43.111Z,15.18
2023-05-30T01:39:07.786Z,12.13
2023-05-30T01:41:39.073Z,13.27
2023-05-30T01:44:08.200Z,11.13
2023-05-30T01:46:38.779Z,16.10
2023-05-30T01:49:15.810Z,15.30
2023-05-30T01:51:49.813Z,11.43
2023-05-30T01:54:17.440Z,15.80
2023-05-30T01:56:44.652Z,10.88
2023-05-30T01:59:11.138Z,13.75
2023-05-30T02:01:37.731Z,14.23
2023-05-30T02:04:03.133Z,12.30
2023-05-30T02:06:30.057Z,11.55
2023-05-30T02:08:54.653Z,15.18
2023-05-30T02:11:20.211Z,10.50
2023-05-30T02:13:44.876Z,15.02
2023-05-30T02:16:09.593Z,13.00
2023-05-30T02:18:36.408Z,11.57
2023-05-30T02:21:01.599Z,11.85
2023-05-30T02:23:26.429Z,15.45
2023-05-30T02:25:52.038Z,10.02
2023-05-30T02:28:21.912Z,14.15
2023-05-30T02:30:47.062Z,10.70
2023-05-30T02:33:11.712Z,12.00
2023-05-30T02:35:38.050Z,13.20
2023-05-30T02:38:03.095Z,12.05
2023-05-30T02:40:27.681Z,20.38
2023-05-30T02:42:52.453Z,12.73
2023-05-30T02:45:17.365Z,14.90
2023-05-30T02:47:43.357Z,13.05
2023-05-30T02:50:09.608Z,13.32
2023-05-30T02:52:36.074Z,14.55
2023-05-30T02:55:00.804Z,12.05
2023-05-30T03:00:33.504Z,11.68
2023-05-30T03:03:06.309Z,11.27
2023-05-30T03:05:31.794Z,12.07
2023-05-30T03:07:58.250Z,12.55
2023-05-30T03:10:23.059Z,12.13
2023-05-30T03:12:49.481Z,12.10
2023-05-30T03:15:14.420Z,13.88
2023-05-30T03:17:40.463Z,10.50
2023-05-30T03:20:08.358Z,14.60
2023-05-30T03:22:35.126Z,11.82
2023-05-30T03:25:03.750Z,12.68
2023-05-30T03:29:57.365Z,17.48
2023-05-30T03:32:22.350Z,13.57
2023-05-30T03:34:47.980Z,15.40
2023-05-30T03:37:16.685Z,16.83
2023-05-30T03:39:41.372Z,11.88
2023-05-30T03:42:09.407Z,12.10
2023-05-30T03:44:34.486Z,13.13
2023-05-30T03:46:59.335Z,8.02
2023-05-30T03:49:23.957Z,9.35
2023-05-30T03:51:48.982Z,11.32
2023-05-30T03:54:13.502Z,12.13
2023-05-30T03:56:38.368Z,10.20
2023-05-30T03:59:08.930Z,11.77
2023-05-30T04:01:35.507Z,14.63
2023-05-30T04:04:00.191Z,14.23
2023-05-30T04:06:27.529Z,11.73
2023-05-30T04:08:55.118Z,15.25
2023-05-30T04:11:19.881Z,14.50
2023-05-30T04:13:44.689Z,12.20
2023-05-30T04:16:11.518Z,16.00
2023-05-30T04:18:37.552Z,11.95
2023-05-30T04:21:02.493Z,11.27
2023-05-30T04:23:27.462Z,12.57
2023-05-30T04:25:52.458Z,15.20
2023-05-30T04:28:18.669Z,15.40
2023-05-30T04:30:43.954Z,14.30
2023-05-30T04:33:10.695Z,13.20
2023-05-30T04:35:35.714Z,12.63
2023-05-30T04:38:02.189Z,11.55
2023-05-30T04:40:29.289Z,13.20
2023-05-30T04:42:55.318Z,15.18
2023-05-30T04:45:20.524Z,13.40
2023-05-30T04:47:46.776Z,15.60
2023-05-30T04:50:15.791Z,14.77
2023-05-30T04:52:40.695Z,14.30
2023-05-30T04:55:05.772Z,13.63
2023-05-30T04:57:30.656Z,15.43
2023-05-30T04:59:57.007Z,13.20
2023-05-30T05:02:23.340Z,11.18
2023-05-30T05:04:47.988Z,11.98
2023-05-30T05:07:13.991Z,13.30
2023-05-30T05:09:38.531Z,12.52
2023-05-30T05:12:05.455Z,18.20
2023-05-30T05:14:30.184Z,13.30
2023-05-30T05:16:55.358Z,13.02
2023-05-30T05:19:20.143Z,15.15
2023-05-30T05:21:44.906Z,11.95
2023-05-30T05:24:11.648Z,12.25
2023-05-30T05:26:36.374Z,13.45
2023-05-30T05:29:01.405Z,13.15
2023-05-30T05:31:26.464Z,15.77
2023-05-30T05:33:51.067Z,16.60
2023-05-30T05:36:16.237Z,13.65
2023-05-30T05:38:41.151Z,13.50
2023-05-30T05:41:07.943Z,17.70
2023-05-30T05:43:32.544Z,14.57
2023-05-30T05:45:57.191Z,17.83
2023-05-30T05:48:21.732Z,18.80
2023-05-30T05:50:46.305Z,22.23
2023-05-30T05:53:11.396Z,15.18
2023-05-30T05:55:35.937Z,14.70
2023-05-30T05:58:02.487Z,16.58
2023-05-30T06:00:30.179Z,15.10
2023-05-30T06:02:54.871Z,12.15
2023-05-30T06:05:19.572Z,16.73
2023-05-30T06:07:44.251Z,17.27
2023-05-30T06:10:10.282Z,28.77
2023-05-30T06:12:34.989Z,17.58
2023-05-30T06:15:01.102Z,12.70
2023-05-30T06:17:30.142Z,10.55
2023-05-30T06:19:54.897Z,13.90
2023-05-30T06:22:21.063Z,12.43
2023-05-30T06:24:45.774Z,17.42
2023-05-30T06:27:10.429Z,10.57
2023-05-30T06:29:37.328Z,11.95
2023-05-30T06:32:15.316Z,13.57
2023-05-30T06:34:42.249Z,11.40
2023-05-30T06:37:07.571Z,14.68
2023-05-30T06:39:32.900Z,8.90
2023-05-30T06:41:57.400Z,7.18
2023-05-30T06:44:36.163Z,15.30
2023-05-30T06:47:02.497Z,12.80
2023-05-30T06:49:28.073Z,15.68
2023-05-30T06:51:52.801Z,13.77
2023-05-30T06:54:17.664Z,7.32
2023-05-30T06:56:42.492Z,13.32
2023-05-30T06:59:09.985Z,10.65
2023-05-30T07:01:34.618Z,9.10
2023-05-30T07:04:00.422Z,8.68
2023-05-30T07:06:26.711Z,10.30
2023-05-30T07:08:51.351Z,7.70
2023-05-30T07:11:16.067Z,9.52
2023-05-30T07:13:41.216Z,8.57
2023-05-30T07:16:06.320Z,10.52
2023-05-30T07:18:30.912Z,6.45
2023-05-30T07:20:57.560Z,15.27
2023-05-30T07:23:22.352Z,8.55
2023-05-30T07:25:47.137Z,11.07
2023-05-30T07:28:13.089Z,8.82
2023-05-30T07:30:38.422Z,9.10
2023-05-30T07:33:03.031Z,8.10
2023-05-30T07:35:27.711Z,11.70
2023-05-30T07:37:54.750Z,10.57
2023-05-30T07:40:19.818Z,10.35
2023-05-30T07:42:45.105Z,6.68
2023-05-30T07:45:10.426Z,9.77
2023-05-30T07:47:35.153Z,11.57
2023-05-30T07:49:59.902Z,11.32
2023-05-30T07:52:24.395Z,10.48
2023-05-30T07:54:50.517Z,7.35
2023-05-30T07:57:15.312Z,13.15
2023-05-30T07:59:39.965Z,10.20
2023-05-30T08:02:04.623Z,9.15
2023-05-30T08:04:29.322Z,12.82
2023-05-30T08:06:54.357Z,6.82
2023-05-30T08:09:18.855Z,11.38
2023-05-30T08:11:44.758Z,9.65
2023-05-30T08:14:10.865Z,7.18
2023-05-30T08:16:38.376Z,10.57
2023-05-30T08:19:03.177Z,8.70
2023-05-30T08:21:28.248Z,13.88
2023-05-30T08:23:53.161Z,13.52
2023-05-30T08:26:18.398Z,8.43
2023-05-30T08:28:44.578Z,9.57
2023-05-30T08:31:09.385Z,7.90
2023-05-30T08:33:36.001Z,9.95
2023-05-30T08:36:00.693Z,9.23
2023-05-30T08:38:26.409Z,8.20
2023-05-30T08:40:54.836Z,8.20
2023-05-30T08:43:20.396Z,6.68
2023-05-30T08:45:46.578Z,16.80
2023-05-30T08:48:14.462Z,12.32
2023-05-30T08:50:43.325Z,8.10
2023-05-30T08:53:17.838Z,10.77
2023-05-30T08:55:46.444Z,8.68
2023-05-30T08:58:20.286Z,8.38
2023-05-30T09:00:47.039Z,9.23
2023-05-30T09:03:13.427Z,10.40
2023-05-30T09:05:39.020Z,10.27
2023-05-30T09:08:04.648Z,11.48
2023-05-30T09:10:30.130Z,8.45
2023-05-30T09:12:55.108Z,10.23
2023-05-30T09:15:19.859Z,11.90
2023-05-30T09:17:46.062Z,8.57
2023-05-30T09:20:13.617Z,11.27
2023-05-30T09:22:39.496Z,10.75
2023-05-30T09:25:06.873Z,11.10
2023-05-30T09:27:34.958Z,11.70
2023-05-30T09:30:07.036Z,9.90
2023-05-30T09:32:36.027Z,8.60
2023-05-30T09:35:05.830Z,11.10
2023-05-30T09:37:39.087Z,15.32
2023-05-30T09:40:08.482Z,13.02
2023-05-30T09:42:40.469Z,9.38
2023-05-30T09:45:08.424Z,9.88
2023-05-30T09:47:40.577Z,9.88
2023-05-30T09:50:07.771Z,9.25
2023-05-30T09:52:32.272Z,16.75
2023-05-30T09:54:56.768Z,8.40
2023-05-30T09:57:22.063Z,7.40
2023-05-30T09:59:47.089Z,5.70
2023-05-30T10:02:14.559Z,6.93
2023-05-30T10:04:42.797Z,9.00
2023-05-30T10:07:08.975Z,9.30
2023-05-30T10:09:34.406Z,10.23
2023-05-30T10:12:04.444Z,7.18
2023-05-30T10:14:29.170Z,7.57
2023-05-30T10:17:00.533Z,7.68
2023-05-30T10:19:28.278Z,8.18
2023-05-30T10:24:27.148Z,10.27
2023-05-30T10:26:57.684Z,11.57
2023-05-30T10:29:24.961Z,7.07
2023-05-30T10:31:52.448Z,9.52
2023-05-30T10:34:19.210Z,12.15
2023-05-30T10:36:45.427Z,18.02
2023-05-30T10:39:20.785Z,8.27
2023-05-30T10:41:57.585Z,6.30
2023-05-30T10:44:35.438Z,6.70
2023-05-30T10:47:17.714Z,9.40
2023-05-30T10:49:43.454Z,7.75
2023-05-30T10:52:09.689Z,10.23
2023-05-30T10:54:35.665Z,7.35
2023-05-30T10:57:02.520Z,8.30
2023-05-30T10:59:27.368Z,7.32
2023-05-30T11:02:06.496Z,6.80
2023-05-30T11:04:41.848Z,9.13
2023-05-30T11:07:09.080Z,8.38
2023-05-30T11:09:33.885Z,5.93
2023-05-30T11:12:00.557Z,9.50
2023-05-30T11:14:29.512Z,11.07
2023-05-30T11:16:59.492Z,10.20
2023-05-30T11:19:27.430Z,8.90
2023-05-30T11:21:59.689Z,11.43
2023-05-30T11:24:24.527Z,10.45
2023-05-30T11:27:00.244Z,9.30
2023-05-30T11:29:34.274Z,9.70
2023-05-30T11:32:00.336Z,8.40
2023-05-30T11:34:25.612Z,6.70
2023-05-30T11:36:51.631Z,8.20
2023-05-30T11:39:16.712Z,10.32
2023-05-30T11:41:43.904Z,9.60
2023-05-30T11:44:09.999Z,10.35
2023-05-30T11:46:38.567Z,9.73
2023-05-30T11:49:06.998Z,12.00
2023-05-30T11:51:33.129Z,6.80
2023-05-30T11:53:58.933Z,11.88
2023-05-30T11:56:26.098Z,7.50
2023-05-30T11:58:53.084Z,10.80
2023-05-30T12:01:21.069Z,9.77
2023-05-30T12:03:48.385Z,8.15
2023-05-30T12:06:15.972Z,9.43
2023-05-30T12:08:42.738Z,7.28
2023-05-30T12:11:07.916Z,6.70
2023-05-30T12:13:32.595Z,9.55
2023-05-30T12:15:57.323Z,9.27
2023-05-30T12:18:22.536Z,8.45
2023-05-30T12:20:54.161Z,8.75
2023-05-30T12:23:19.171Z,9.35
2023-05-30T12:25:51.809Z,10.05
2023-05-30T12:28:16.540Z,8.60
2023-05-30T12:30:44.562Z,8.80
2023-05-30T12:33:16.057Z,11.73
2023-05-30T12:35:42.182Z,9.65
2023-05-30T12:38:08.483Z,11.95
2023-05-30T12:40:34.163Z,10.55
2023-05-30T12:42:59.133Z,13.45
2023-05-30T12:45:24.427Z,8.43
2023-05-30T12:47:49.597Z,13.93
2023-05-30T12:50:14.309Z,12.18
2023-05-30T12:52:39.140Z,12.02
2023-05-30T12:55:05.731Z,9.73
2023-05-30T12:57:31.719Z,12.70
2023-05-30T12:59:57.400Z,16.02
2023-05-30T13:02:25.876Z,12.57
2023-05-30T13:04:54.174Z,11.63
2023-05-30T13:07:19.088Z,9.30
2023-05-30T13:09:43.820Z,11.63
2023-05-30T13:12:11.258Z,10.27
2023-05-30T13:14:35.821Z,14.98
2023-05-30T13:17:00.755Z,16.83
2023-05-30T13:19:27.001Z,15.43
2023-05-30T13:21:51.753Z,9.77
2023-05-30T13:24:16.371Z,11.45
2023-05-30T13:26:41.080Z,8.32
2023-05-30T13:29:07.435Z,11.45
2023-05-30T13:31:32.098Z,9.60
2023-05-30T13:33:58.617Z,8.95
2023-05-30T13:36:25.374Z,8.95
2023-05-30T13:38:50.160Z,13.45
2023-05-30T13:41:15.414Z,10.80
2023-05-30T13:43:40.145Z,9.25
2023-05-30T13:46:06.523Z,17.40
2023-05-30T13:48:31.093Z,12.25
2023-05-30T13:50:55.907Z,8.32
2023-05-30T13:53:29.778Z,9.75
2023-05-30T13:56:01.701Z,10.30
2023-05-30T13:58:26.958Z,8.50
2023-05-30T14:00:52.024Z,14.85
2023-05-30T14:03:19.006Z,9.68
2023-05-30T14:05:43.816Z,10.52
2023-05-30T14:08:10.992Z,9.43
2023-05-30T14:10:35.953Z,8.63
2023-05-30T14:13:02.218Z,11.60
2023-05-30T14:15:27.568Z,8.27
2023-05-30T14:17:53.064Z,9.75
2023-05-30T14:20:19.410Z,9.38
2023-05-30T14:22:45.450Z,13.52
2023-05-30T14:25:10.971Z,20.13
2023-05-30T14:27:36.812Z,8.68
2023-05-30T14:30:02.892Z,13.80
2023-05-30T14:32:32.610Z,11.77
2023-05-30T14:34:57.845Z,11.48
2023-05-30T14:37:24.441Z,13.00
2023-05-30T14:39:49.283Z,13.15
2023-05-30T14:42:15.750Z,12.77
2023-05-30T14:44:41.257Z,12.27
2023-05-30T14:47:06.821Z,9.30
2023-05-30T14:49:31.693Z,8.82
2023-05-30T14:51:57.445Z,10.63
2023-05-30T14:54:24.176Z,15.02
2023-05-30T14:56:49.281Z,9.95
2023-05-30T14:59:15.258Z,8.50
2023-05-30T15:01:46.135Z,13.32
2023-05-30T15:04:12.160Z,10.90
2023-05-30T15:06:37.114Z,10.13
2023-05-30T15:09:01.672Z,9.82
2023-05-30T15:11:27.830Z,11.40
2023-05-30T15:13:52.710Z,9.13
2023-05-30T15:16:17.381Z,10.75
2023-05-30T15:18:43.049Z,15.68
2023-05-30T15:21:09.053Z,10.70
2023-05-30T15:23:34.086Z,12.07
2023-05-30T15:26:01.332Z,10.48
2023-05-30T15:28:27.465Z,14.65
2023-05-30T15:30:52.057Z,13.13
2023-05-30T15:33:18.562Z,13.48
2023-05-30T15:35:43.432Z,9.70
2023-05-30T15:38:08.557Z,11.07
2023-05-30T15:40:34.155Z,9.95
2023-05-30T15:42:58.957Z,12.90
2023-05-30T15:45:25.235Z,12.70
2023-05-30T15:47:51.432Z,10.93
2023-05-30T15:50:16.066Z,9.02
2023-05-30T15:52:40.805Z,11.63
2023-05-30T15:55:05.966Z,15.10
2023-05-30T15:57:30.867Z,10.80
2023-05-30T15:59:55.708Z,13.85
2023-05-30T16:02:21.842Z,13.13
2023-05-30T16:04:46.864Z,13.13
2023-05-30T16:07:12.436Z,12.05
2023-05-30T16:09:39.874Z,12.45
2023-05-30T16:12:05.064Z,12.75
2023-05-30T16:14:29.895Z,12.23
2023-05-30T16:16:54.850Z,12.32
2023-05-30T16:19:21.273Z,13.27
2023-05-30T16:21:45.972Z,13.88
2023-05-30T16:24:10.414Z,8.93
2023-05-30T16:26:35.330Z,11.77
2023-05-30T16:28:59.853Z,13.43
2023-05-30T16:31:25.444Z,12.80
2023-05-30T16:33:50.207Z,10.82
2023-05-30T16:36:18.362Z,16.25
2023-05-30T16:38:43.294Z,17.15
2023-05-30T16:41:13.454Z,16.52
2023-05-30T16:43:39.093Z,15.10
2023-05-30T16:46:03.804Z,13.88
2023-05-30T16:48:28.300Z,19.00
2023-05-30T16:50:53.313Z,11.23
2023-05-30T16:53:20.730Z,16.35
2023-05-30T16:55:45.478Z,19.13
2023-05-30T16:58:10.210Z,21.13
2023-05-30T17:00:34.817Z,14.85
2023-05-30T17:03:00.271Z,15.30
2023-05-30T17:05:25.519Z,20.25
2023-05-30T17:07:49.870Z,18.40
2023-05-30T17:10:18.744Z,14.68
2023-05-30T17:12:44.548Z,17.45
2023-05-30T17:15:09.924Z,19.80
2023-05-30T17:17:34.380Z,19.45
2023-05-30T17:19:59.248Z,12.70
2023-05-30T17:22:24.455Z,14.30
2023-05-30T17:24:49.118Z,15.00
2023-05-30T17:27:15.001Z,24.55
2023-05-30T17:29:39.444Z,14.82
2023-05-30T17:32:04.861Z,16.15
2023-05-30T17:34:29.434Z,18.90
2023-05-30T17:36:53.891Z,22.05
2023-05-30T17:39:19.053Z,17.80
2023-05-30T17:41:43.694Z,15.10
2023-05-30T17:44:09.771Z,18.50
2023-05-30T17:46:34.465Z,14.18
2023-05-30T17:48:59.247Z,15.13
2023-05-30T17:51:23.979Z,17.98
2023-05-30T17:53:55.979Z,16.73
2023-05-30T17:56:22.737Z,16.20
2023-05-30T17:58:47.285Z,16.58
2023-05-30T18:01:13.387Z,21.27
2023-05-30T18:03:37.987Z,16.98
2023-05-30T18:06:05.471Z,15.43
2023-05-30T18:08:30.329Z,16.83
2023-05-30T18:10:54.827Z,16.35
2023-05-30T18:13:19.820Z,20.92
2023-05-30T18:15:47.101Z,19.92
2023-05-30T18:18:13.632Z,17.15
2023-05-30T18:20:39.775Z,24.60
2023-05-30T18:23:04.489Z,23.58
2023-05-30T18:25:28.917Z,17.75
2023-05-30T18:27:53.471Z,16.42
2023-05-30T18:30:18.456Z,20.10
2023-05-30T18:32:43.177Z,20.30
2023-05-30T18:35:10.315Z,20.77
2023-05-30T18:37:34.894Z,16.95
2023-05-30T18:39:59.290Z,18.20
2023-05-30T18:42:23.891Z,18.65
2023-05-30T18:44:48.843Z,19.10
2023-05-30T18:47:16.063Z,16.10
2023-05-30T18:49:40.776Z,22.27
2023-05-30T18:52:07.659Z,18.58
2023-05-30T18:54:32.212Z,18.15
2023-05-30T18:56:56.949Z,18.10
2023-05-30T18:59:21.427Z,16.85
2023-05-30T19:01:46.217Z,17.30
2023-05-30T19:04:11.669Z,15.35
2023-05-30T19:06:36.812Z,14.13
2023-05-30T19:09:02.568Z,15.63
2023-05-30T19:11:27.286Z,18.30
2023-05-30T19:13:51.810Z,13.93
2023-05-30T19:16:16.324Z,18.35
2023-05-30T19:18:40.745Z,16.63
2023-05-30T19:21:05.251Z,19.63
2023-05-30T19:23:29.687Z,16.73
2023-05-30T19:25:55.592Z,15.45
2023-05-30T19:28:20.286Z,19.58
2023-05-30T19:30:45.197Z,19.83
2023-05-30T19:33:09.957Z,19.70
2023-05-30T19:35:35.028Z,17.27
2023-05-30T19:38:00.837Z,17.35
2023-05-30T19:40:25.456Z,27.63
2023-05-30T19:42:51.351Z,17.48
2023-05-30T19:45:16.076Z,19.50
2023-05-30T19:47:40.841Z,19.02
2023-05-30T19:50:06.610Z,17.30
2023-05-30T19:52:31.024Z,19.27
2023-05-30T19:54:56.313Z,21.38
2023-05-30T19:57:21.174Z,18.48
2023-05-30T19:59:47.621Z,18.42
2023-05-30T20:02:12.924Z,17.75
2023-05-30T20:04:38.016Z,16.23
2023-05-30T20:07:04.035Z,17.85
2023-05-30T20:09:28.684Z,14.30
2023-05-30T20:11:53.212Z,19.33
2023-05-30T20:14:18.220Z,18.15
2023-05-30T20:16:44.783Z,14.52
2023-05-30T20:19:09.556Z,15.55
2023-05-30T20:21:34.827Z,16.65
2023-05-30T20:24:00.686Z,15.13
2023-05-30T20:26:26.020Z,17.88
2023-05-30T20:28:50.773Z,14.73
2023-05-30T20:31:15.345Z,12.98
2023-05-30T20:33:41.648Z,15.38
2023-05-30T20:36:06.702Z,15.93
2023-05-30T20:38:31.297Z,23.77
2023-05-30T20:40:55.858Z,17.13
2023-05-30T20:43:22.934Z,12.90
2023-05-30T20:45:47.698Z,14.98
2023-05-30T20:48:12.359Z,16.48
2023-05-30T20:50:38.399Z,18.13
2023-05-30T20:53:03.062Z,12.85
2023-05-30T20:55:27.886Z,20.27
2023-05-30T20:57:52.635Z,21.58
2023-05-30T21:00:17.709Z,13.43
2023-05-30T21:02:42.544Z,18.92
2023-05-30T21:05:09.498Z,23.48
2023-05-30T21:07:35.813Z,15.60
2023-05-30T21:10:00.506Z,14.82
2023-05-30T21:12:25.228Z,16.38
2023-05-30T21:14:49.948Z,15.93
2023-05-30T21:17:14.659Z,16.48
2023-05-30T21:19:40.461Z,14.57
2023-05-30T21:22:05.452Z,11.73
2023-05-30T21:24:31.966Z,12.60
2023-05-30T21:26:57.834Z,16.83
2023-05-30T21:29:22.462Z,18.88
2023-05-30T21:31:47.320Z,13.18
2023-05-30T21:34:12.054Z,13.95
2023-05-30T21:36:38.295Z,16.52
2023-05-30T21:39:04.517Z,16.40
2023-05-30T21:41:30.796Z,21.80
2023-05-30T21:43:55.302Z,14.75
2023-05-30T21:46:20.190Z,16.15
2023-05-30T21:48:44.861Z,21.25
2023-05-30T21:51:09.545Z,18.45
2023-05-30T21:53:34.574Z,22.88
2023-05-30T21:55:59.388Z,23.38
2023-05-30T21:58:25.588Z,19.38
2023-05-30T22:00:50.360Z,18.20
2023-05-30T22:03:15.081Z,14.48
2023-05-30T22:05:41.992Z,17.38
2023-05-30T22:08:06.997Z,17.73
2023-05-30T22:10:31.991Z,22.00
2023-05-30T22:12:56.833Z,16.90
2023-05-30T22:15:23.821Z,22.17
2023-05-30T22:17:48.714Z,17.10
2023-05-30T22:20:13.820Z,17.90
2023-05-30T22:22:38.377Z,22.05
2023-05-30T22:25:02.936Z,19.63
2023-05-30T22:27:28.230Z,14.32
2023-05-30T22:29:54.944Z,22.80
2023-05-30T22:32:22.141Z,17.38
2023-05-30T22:34:46.915Z,19.30
2023-05-30T22:37:11.591Z,15.48
2023-05-30T22:39:36.424Z,16.65
2023-05-30T22:42:01.077Z,17.10
2023-05-30T22:44:25.988Z,16.90
2023-05-30T22:46:50.632Z,19.33
2023-05-30T22:49:17.845Z,16.92
2023-05-30T22:51:42.437Z,21.92
2023-05-30T22:54:07.506Z,17.50
2023-05-30T22:56:32.372Z,15.43
2023-05-30T22:58:57.580Z,19.85
2023-05-30T23:01:22.217Z,16.95
2023-05-30T23:03:48.130Z,17.88
2023-05-30T23:06:14.488Z,17.75
2023-05-30T23:08:39.254Z,16.40
2023-05-30T23:11:03.736Z,23.77
2023-05-30T23:13:28.385Z,14.05
2023-05-30T23:15:53.040Z,19.85
2023-05-30T23:18:17.706Z,19.48
2023-05-30T23:20:42.672Z,17.90
2023-05-30T23:23:08.696Z,22.50
2023-05-30T23:25:34.589Z,18.70
2023-05-30T23:28:00.218Z,16.92
2023-05-30T23:30:25.313Z,13.55
2023-05-30T23:32:50.100Z,18.23
2023-05-30T23:35:15.093Z,16.08
2023-05-30T23:37:40.057Z,15.27
2023-05-30T23:40:07.857Z,19.80
2023-05-30T23:42:32.676Z,14.57
2023-05-30T23:44:57.417Z,17.17
2023-05-30T23:47:22.405Z,16.80
2023-05-30T23:49:47.443Z,16.83
2023-05-30T23:52:12.536Z,21.05
2023-05-30T23:54:37.375Z,21.13
2023-05-30T23:57:03.480Z,18.52
2023-05-30T23:59:28.332Z,18.00
